Time;durP1;ratioP1;P1;durP2;ratioP2;P2;SDS_P1;SDS_P2;PMS_P1;PMS_P2;Temp;Humidity;BMP_temperature;BMP_pressure;BME280_temperature;BME280_humidity;BME280_pressure;Samples;Min_cycle;Max_cycle;Signal;HPM_P1;HPM_P2
2021/05/10 00:01:05;;;;;;;;;;;21.10;99.90;;;;;;5017326;28;19929;-86
2021/05/10 00:03:31;;;;;;;;;;;21.10;99.90;;;;;;5016215;28;19921;-87
2021/05/10 00:05:57;;;;;;;;;;;21.00;99.90;;;;;;5015296;28;19925;-87
2021/05/10 00:08:25;;;;;;;;;;;21.00;99.90;;;;;;5015378;28;20379;-86
2021/05/10 00:10:51;;;;;;;;;;;21.00;99.90;;;;;;5014993;28;19921;-86
2021/05/10 00:13:19;;;;;;;;;;;21.00;99.90;;;;;;5015784;28;20026;-86
2021/05/10 00:15:45;;;;;;;;;;;21.00;99.90;;;;;;5016560;28;19959;-86
2021/05/10 00:18:12;;;;;;;;;;;21.00;99.90;;;;;;5016270;28;19959;-86
2021/05/10 00:20:41;;;;;;;;;;;20.90;99.90;;;;;;5015575;28;20012;-87
2021/05/10 00:23:08;;;;;;;;;;;21.00;99.90;;;;;;5015305;28;19926;-87
2021/05/10 00:25:34;;;;;;;;;;;21.00;99.90;;;;;;5017345;28;19925;-87
2021/05/10 00:28:00;;;;;;;;;;;20.90;99.90;;;;;;5014987;28;19921;-87
2021/05/10 00:30:27;;;;;;;;;;;21.00;99.90;;;;;;5015737;28;20007;-85
2021/05/10 00:32:53;;;;;;;;;;;21.10;99.90;;;;;;5014795;28;19922;-87
2021/05/10 00:35:20;;;;;;;;;;;21.10;99.90;;;;;;5015063;28;19921;-87
2021/05/10 00:37:46;;;;;;;;;;;21.10;99.90;;;;;;5014571;28;19925;-87
2021/05/10 00:40:14;;;;;;;;;;;21.10;99.90;;;;;;5014464;28;19921;-87
2021/05/10 00:42:40;;;;;;;;;;;21.10;99.90;;;;;;5014579;28;19921;-88
2021/05/10 00:45:07;;;;;;;;;;;21.10;99.90;;;;;;5014530;28;19927;-86
2021/05/10 00:47:34;;;;;;;;;;;21.10;99.90;;;;;;5020201;28;19928;-86
2021/05/10 00:50:01;;;;;;;;;;;21.00;99.90;;;;;;5022600;28;19922;-86
2021/05/10 00:52:27;;;;;;;;;;;21.00;99.90;;;;;;5037833;28;19956;-87
2021/05/10 00:54:53;;;;;;;;;;;20.80;99.90;;;;;;5034636;28;20015;-86
2021/05/10 00:57:20;;;;;;;;;;;20.80;99.90;;;;;;5015050;28;19929;-87
2021/05/10 00:59:48;;;;;;;;;;;20.70;99.90;;;;;;5014864;28;19925;-87
2021/05/10 01:02:15;;;;;;;;;;;20.80;99.90;;;;;;4994933;28;19938;-90
2021/05/10 01:04:42;;;;;;;;;;;20.70;99.90;;;;;;5009385;28;20254;-86
2021/05/10 01:07:08;;;;;;;;;;;20.80;99.90;;;;;;5014156;28;19922;-87
2021/05/10 01:09:34;;;;;;;;;;;20.90;99.90;;;;;;5013477;28;19921;-87
2021/05/10 01:12:00;;;;;;;;;;;20.90;99.90;;;;;;5013934;28;19965;-88
2021/05/10 01:14:27;;;;;;;;;;;20.80;99.90;;;;;;5013919;28;19929;-88
2021/05/10 01:16:53;;;;;;;;;;;20.80;99.90;;;;;;5014167;28;19921;-87
2021/05/10 01:19:19;;;;;;;;;;;20.80;99.90;;;;;;5014040;28;20022;-86
2021/05/10 01:21:47;;;;;;;;;;;20.90;99.90;;;;;;5014199;28;19984;-87
2021/05/10 01:24:15;;;;;;;;;;;20.90;99.90;;;;;;5017437;28;20377;-86
2021/05/10 01:26:41;;;;;;;;;;;20.90;99.90;;;;;;5020771;28;19909;-87
2021/05/10 01:29:07;;;;;;;;;;;20.90;99.90;;;;;;5016536;28;19925;-88
2021/05/10 01:31:33;;;;;;;;;;;20.90;99.90;;;;;;5015000;28;19980;-86
2021/05/10 01:33:59;;;;;;;;;;;21.00;99.90;;;;;;5014447;28;19975;-87
2021/05/10 01:36:26;;;;;;;;;;;21.00;99.90;;;;;;5014658;28;19921;-86
2021/05/10 01:38:52;;;;;;;;;;;21.00;99.90;;;;;;5014161;28;20407;-83
2021/05/10 01:41:19;;;;;;;;;;;21.00;99.90;;;;;;5014256;28;19922;-86
2021/05/10 01:43:45;;;;;;;;;;;21.00;99.90;;;;;;5013769;28;20066;-86
2021/05/10 01:46:11;;;;;;;;;;;21.00;99.90;;;;;;5014041;28;19921;-87
2021/05/10 01:48:37;;;;;;;;;;;21.00;99.90;;;;;;5014024;28;19960;-87
2021/05/10 01:51:04;;;;;;;;;;;21.00;99.90;;;;;;5013467;28;20347;-87
2021/05/10 01:53:32;;;;;;;;;;;20.90;99.90;;;;;;5014312;28;20009;-86
2021/05/10 01:55:58;;;;;;;;;;;20.90;99.90;;;;;;5014481;28;19944;-85
2021/05/10 01:58:26;;;;;;;;;;;21.10;99.90;;;;;;5014283;28;20266;-89
2021/05/10 02:00:52;;;;;;;;;;;21.20;99.90;;;;;;4995245;28;19921;-87
2021/05/10 02:03:20;;;;;;;;;;;21.40;99.90;;;;;;5012130;28;19928;-88
2021/05/10 02:05:47;;;;;;;;;;;21.50;99.90;;;;;;5014291;28;19925;-85
2021/05/10 02:08:14;;;;;;;;;;;21.50;99.90;;;;;;5014653;28;19922;-85
2021/05/10 02:10:41;;;;;;;;;;;21.70;99.90;;;;;;5014458;28;19921;-86
2021/05/10 02:13:08;;;;;;;;;;;22.00;99.90;;;;;;5013806;28;20325;-84
2021/05/10 02:15:36;;;;;;;;;;;22.10;99.90;;;;;;5016324;28;19928;-87
2021/05/10 02:18:03;;;;;;;;;;;22.00;99.90;;;;;;5027951;28;19922;-86
2021/05/10 02:20:30;;;;;;;;;;;22.00;99.90;;;;;;5029184;28;19921;-86
2021/05/10 02:22:57;;;;;;;;;;;21.90;99.90;;;;;;5031147;28;20344;-86
2021/05/10 02:25:24;;;;;;;;;;;21.90;99.90;;;;;;5036629;28;19981;-87
2021/05/10 02:27:51;;;;;;;;;;;21.80;99.90;;;;;;5037969;28;19985;-85
2021/05/10 02:30:21;;;;;;;;;;;21.70;99.90;;;;;;5030764;28;19925;-85
2021/05/10 02:32:48;;;;;;;;;;;21.70;99.90;;;;;;5030156;28;19989;-85
2021/05/10 02:35:14;;;;;;;;;;;21.70;99.90;;;;;;5037718;28;19929;-86
2021/05/10 02:37:41;;;;;;;;;;;21.60;99.90;;;;;;5035124;28;20025;-87
2021/05/10 02:40:08;;;;;;;;;;;21.50;99.90;;;;;;5020059;28;19926;-87
2021/05/10 02:42:34;;;;;;;;;;;21.40;99.90;;;;;;5019516;28;19925;-87
2021/05/10 02:45:00;;;;;;;;;;;21.40;99.90;;;;;;5020882;28;19953;-86
2021/05/10 02:47:26;;;;;;;;;;;21.40;99.90;;;;;;5017617;28;19932;-82
2021/05/10 02:49:53;;;;;;;;;;;21.30;99.90;;;;;;5016262;28;19928;-86
2021/05/10 02:52:22;;;;;;;;;;;21.40;99.90;;;;;;5015940;28;20009;-87
2021/05/10 02:54:48;;;;;;;;;;;21.30;99.90;;;;;;5016192;28;19928;-85
2021/05/10 02:57:14;;;;;;;;;;;21.30;99.90;;;;;;5016125;28;19980;-86
2021/05/10 02:59:41;;;;;;;;;;;21.30;99.90;;;;;;5016402;28;19922;-86
2021/05/10 03:02:07;;;;;;;;;;;21.20;99.90;;;;;;5015880;28;19964;-87
2021/05/10 03:04:33;;;;;;;;;;;21.10;99.90;;;;;;5016386;28;19967;-87
2021/05/10 03:07:00;;;;;;;;;;;21.00;99.90;;;;;;5015985;28;20284;-87
2021/05/10 03:09:26;;;;;;;;;;;21.00;99.90;;;;;;5016368;28;19921;-88
2021/05/10 03:11:52;;;;;;;;;;;20.90;99.90;;;;;;5015869;28;19921;-86
2021/05/10 03:14:19;;;;;;;;;;;20.90;99.90;;;;;;5016131;28;19969;-85
2021/05/10 03:16:45;;;;;;;;;;;20.90;99.90;;;;;;5015967;28;20030;-88
2021/05/10 03:19:11;;;;;;;;;;;20.80;99.90;;;;;;5015486;28;19921;-87
2021/05/10 03:21:37;;;;;;;;;;;20.80;99.90;;;;;;5015980;28;19925;-88
2021/05/10 03:24:05;;;;;;;;;;;20.80;99.90;;;;;;5015858;28;19922;-87
2021/05/10 03:26:31;;;;;;;;;;;20.70;99.90;;;;;;5015268;28;19967;-87
2021/05/10 03:28:57;;;;;;;;;;;20.70;99.90;;;;;;5015801;28;19926;-87
2021/05/10 03:31:23;;;;;;;;;;;20.60;99.90;;;;;;5015529;28;19921;-85
2021/05/10 03:33:49;;;;;;;;;;;20.60;99.90;;;;;;5014487;28;19925;-87
2021/05/10 03:36:15;;;;;;;;;;;20.60;99.90;;;;;;5015723;28;20392;-86
2021/05/10 03:38:42;;;;;;;;;;;20.40;99.90;;;;;;5015426;28;20419;-86
2021/05/10 03:41:09;;;;;;;;;;;20.40;99.90;;;;;;5015693;28;20288;-85
2021/05/10 03:43:35;;;;;;;;;;;20.40;99.90;;;;;;5014918;28;19921;-87
2021/05/10 03:46:01;;;;;;;;;;;20.40;99.90;;;;;;5015546;28;19921;-89
2021/05/10 03:48:27;;;;;;;;;;;20.30;99.90;;;;;;5015456;28;20299;-89
2021/05/10 03:50:53;;;;;;;;;;;20.20;99.90;;;;;;5016006;28;20460;-89
2021/05/10 03:53:20;;;;;;;;;;;20.10;99.90;;;;;;5015654;28;19922;-88
2021/05/10 03:55:46;;;;;;;;;;;20.00;99.90;;;;;;5016194;28;20377;-88
2021/05/10 03:58:13;;;;;;;;;;;20.10;99.90;;;;;;5015439;28;19921;-89
2021/05/10 04:00:39;;;;;;;;;;;20.10;99.90;;;;;;5016033;28;19925;-91
2021/05/10 04:03:07;;;;;;;;;;;20.20;99.90;;;;;;5016025;28;19921;-89
2021/05/10 04:05:56;;;;;;;;;;;20.30;99.90;;;;;;5017167;28;19921;-89
2021/05/10 04:08:42;;;;;;;;;;;20.30;99.90;;;;;;5032120;28;19921;-90
2021/05/10 04:11:11;;;;;;;;;;;20.20;99.90;;;;;;5036031;28;19977;-87
2021/05/10 04:13:40;;;;;;;;;;;20.20;99.90;;;;;;5039004;28;19925;-88
2021/05/10 04:16:06;;;;;;;;;;;20.40;99.90;;;;;;5035635;28;19976;-86
2021/05/10 04:18:33;;;;;;;;;;;20.50;99.90;;;;;;5015041;28;19925;-86
2021/05/10 04:20:59;;;;;;;;;;;20.60;99.90;;;;;;5015354;28;19921;-85
2021/05/10 04:23:27;;;;;;;;;;;20.60;99.90;;;;;;5014983;28;20407;-87
2021/05/10 04:25:54;;;;;;;;;;;20.60;99.90;;;;;;5015077;28;20281;-86
2021/05/10 04:28:22;;;;;;;;;;;20.80;99.90;;;;;;5014613;28;19921;-86
2021/05/10 04:30:50;;;;;;;;;;;20.90;99.90;;;;;;5016162;28;19991;-87
2021/05/10 04:33:17;;;;;;;;;;;20.90;99.90;;;;;;5016317;28;19932;-87
2021/05/10 04:35:43;;;;;;;;;;;20.90;99.90;;;;;;5015639;28;19921;-87
2021/05/10 04:38:11;;;;;;;;;;;20.90;99.90;;;;;;5021787;28;19922;-87
2021/05/10 04:40:38;;;;;;;;;;;20.90;99.90;;;;;;5015951;28;19921;-90
2021/05/10 04:43:04;;;;;;;;;;;20.90;99.90;;;;;;5014458;28;19922;-87
2021/05/10 04:45:31;;;;;;;;;;;20.80;99.90;;;;;;5014851;28;19990;-90
2021/05/10 04:47:58;;;;;;;;;;;20.00;99.90;;;;;;5015310;28;20370;-87
2021/05/10 04:50:24;;;;;;;;;;;19.30;99.90;;;;;;5014907;28;20007;-88
2021/05/10 04:52:50;;;;;;;;;;;18.60;99.90;;;;;;5013911;28;19975;-89
2021/05/10 04:55:16;;;;;;;;;;;18.20;99.90;;;;;;5014228;28;19979;-84
2021/05/10 04:57:44;;;;;;;;;;;18.00;99.90;;;;;;5013931;28;19927;-82
2021/05/10 05:00:11;;;;;;;;;;;17.90;99.90;;;;;;5013871;28;19922;-84
2021/05/10 05:02:37;;;;;;;;;;;18.00;99.90;;;;;;5014718;28;19925;-85
2021/05/10 05:05:06;;;;;;;;;;;18.00;99.90;;;;;;5014296;28;20004;-91
2021/05/10 05:07:32;;;;;;;;;;;18.00;99.90;;;;;;5014397;28;19948;-84
2021/05/10 05:09:58;;;;;;;;;;;18.20;99.90;;;;;;5013619;28;19922;-86
2021/05/10 05:12:24;;;;;;;;;;;18.40;99.90;;;;;;5013895;28;19921;-83
2021/05/10 05:14:51;;;;;;;;;;;18.40;99.90;;;;;;5013182;28;20014;-89
2021/05/10 05:17:17;;;;;;;;;;;18.60;99.90;;;;;;5012347;28;19925;-85
2021/05/10 05:19:43;;;;;;;;;;;18.80;99.90;;;;;;5012610;28;20012;-84
2021/05/10 05:22:10;;;;;;;;;;;18.90;99.90;;;;;;5013460;28;19921;-84
2021/05/10 05:24:36;;;;;;;;;;;19.00;99.90;;;;;;5013965;28;19968;-87
2021/05/10 05:27:02;;;;;;;;;;;19.20;99.90;;;;;;5005049;28;19925;-87
2021/05/10 05:29:29;;;;;;;;;;;19.20;99.90;;;;;;5013548;28;19921;-88
2021/05/10 05:31:57;;;;;;;;;;;19.30;99.90;;;;;;5009505;28;19928;-85
2021/05/10 05:34:24;;;;;;;;;;;19.30;99.90;;;;;;4974422;28;20332;-86
2021/05/10 05:36:50;;;;;;;;;;;19.40;99.90;;;;;;4974286;28;19957;-86
2021/05/10 05:39:17;;;;;;;;;;;19.40;99.90;;;;;;4973490;28;19922;-87
2021/05/10 05:41:43;;;;;;;;;;;19.50;99.90;;;;;;4974653;28;19922;-89
2021/05/10 05:44:09;;;;;;;;;;;19.60;99.90;;;;;;4978125;28;19922;-87
2021/05/10 05:46:39;;;;;;;;;;;19.60;99.90;;;;;;4977553;28;19977;-86
2021/05/10 05:49:05;;;;;;;;;;;19.70;99.90;;;;;;4980419;28;20334;-90
2021/05/10 05:51:31;;;;;;;;;;;19.70;99.90;;;;;;4975493;28;19929;-87
2021/05/10 05:53:58;;;;;;;;;;;19.80;99.90;;;;;;4975445;28;19921;-90
2021/05/10 05:56:25;;;;;;;;;;;19.70;99.90;;;;;;4977020;28;20374;-86
2021/05/10 05:58:51;;;;;;;;;;;19.50;99.90;;;;;;4978960;28;19922;-87
2021/05/10 06:01:17;;;;;;;;;;;19.40;99.90;;;;;;4981240;28;19950;-90
2021/05/10 06:03:44;;;;;;;;;;;19.20;99.90;;;;;;4982024;28;19922;-90
2021/05/10 06:06:10;;;;;;;;;;;19.10;99.90;;;;;;4978708;28;19922;-84
2021/05/10 06:08:36;;;;;;;;;;;19.10;99.90;;;;;;4978123;28;19926;-85
2021/05/10 06:11:03;;;;;;;;;;;19.00;99.90;;;;;;4977381;28;19922;-86
2021/05/10 06:13:31;;;;;;;;;;;19.00;99.90;;;;;;4978797;28;19929;-87
2021/05/10 06:15:57;;;;;;;;;;;18.90;99.90;;;;;;4979648;28;19933;-85
2021/05/10 06:18:23;;;;;;;;;;;19.00;99.90;;;;;;4978849;28;20086;-89
2021/05/10 06:20:50;;;;;;;;;;;19.00;99.90;;;;;;4978964;28;19922;-88
2021/05/10 06:23:16;;;;;;;;;;;19.10;99.90;;;;;;4978232;28;19929;-87
2021/05/10 06:25:42;;;;;;;;;;;19.10;99.90;;;;;;4978268;28;19965;-87
2021/05/10 06:28:08;;;;;;;;;;;19.10;99.90;;;;;;4977888;28;19928;-88
2021/05/10 06:30:35;;;;;;;;;;;19.20;99.90;;;;;;4976331;28;19922;-88
2021/05/10 06:33:01;;;;;;;;;;;19.20;99.90;;;;;;4994420;28;20004;-89
2021/05/10 06:35:28;;;;;;;;;;;19.20;99.90;;;;;;5015300;28;19921;-88
2021/05/10 06:37:54;;;;;;;;;;;19.20;99.90;;;;;;5013981;28;19928;-86
2021/05/10 06:40:23;;;;;;;;;;;19.20;99.90;;;;;;5016133;28;20021;-89
2021/05/10 06:42:49;;;;;;;;;;;19.30;99.90;;;;;;5016742;28;19975;-87
2021/05/10 06:45:15;;;;;;;;;;;19.40;99.90;;;;;;5017035;28;19921;-88
2021/05/10 06:47:42;;;;;;;;;;;19.40;99.90;;;;;;5016875;28;19922;-85
2021/05/10 06:50:09;;;;;;;;;;;19.30;99.90;;;;;;5016632;28;20007;-88
2021/05/10 06:52:35;;;;;;;;;;;19.20;99.90;;;;;;5017083;28;19921;-88
2021/05/10 06:55:03;;;;;;;;;;;19.20;99.90;;;;;;5016959;28;19928;-91
2021/05/10 06:57:29;;;;;;;;;;;19.10;99.90;;;;;;5017033;28;19959;-89
2021/05/10 06:59:57;;;;;;;;;;;19.00;99.90;;;;;;5016892;28;19944;-89
2021/05/10 07:02:24;;;;;;;;;;;19.10;99.90;;;;;;4999163;28;19922;-87
2021/05/10 07:04:51;;;;;;;;;;;19.20;99.90;;;;;;5017552;28;20016;-89
2021/05/10 07:07:17;;;;;;;;;;;19.40;99.90;;;;;;5015451;28;19948;-89
2021/05/10 07:09:44;;;;;;;;;;;19.60;99.90;;;;;;5016246;28;19971;-89
2021/05/10 07:12:11;;;;;;;;;;;19.80;99.90;;;;;;5016658;28;20280;-89
2021/05/10 07:14:38;;;;;;;;;;;19.90;99.90;;;;;;5016502;28;19921;-88
2021/05/10 07:17:04;;;;;;;;;;;19.90;99.90;;;;;;5016710;28;19921;-88
2021/05/10 07:19:30;;;;;;;;;;;19.80;99.90;;;;;;5016710;28;19928;-90
2021/05/10 07:21:57;;;;;;;;;;;19.70;99.90;;;;;;5016636;28;20011;-89
2021/05/10 07:24:23;;;;;;;;;;;19.70;99.90;;;;;;5017120;28;19927;-89
2021/05/10 07:26:49;;;;;;;;;;;19.70;99.90;;;;;;5017073;28;20301;-89
2021/05/10 07:29:15;;;;;;;;;;;19.90;99.90;;;;;;5029831;28;19944;-89
2021/05/10 07:31:42;;;;;;;;;;;20.00;99.90;;;;;;5035768;28;19961;-88
2021/05/10 07:34:08;;;;;;;;;;;20.10;99.90;;;;;;5040510;28;19940;-87
2021/05/10 07:36:34;;;;;;;;;;;20.20;99.90;;;;;;5034823;28;19921;-89
2021/05/10 07:39:02;;;;;;;;;;;20.40;99.90;;;;;;5016787;28;19975;-89
2021/05/10 07:41:28;;;;;;;;;;;20.50;99.90;;;;;;5016148;28;19927;-86
2021/05/10 07:43:54;;;;;;;;;;;20.60;99.90;;;;;;5016416;28;19921;-89
2021/05/10 07:46:23;;;;;;;;;;;20.70;99.90;;;;;;5020189;28;19927;-89
2021/05/10 07:48:49;;;;;;;;;;;20.80;99.90;;;;;;5016445;28;20262;-87
2021/05/10 07:51:15;;;;;;;;;;;20.90;99.90;;;;;;5015948;28;19929;-86
2021/05/10 07:53:41;;;;;;;2.97;2.00;;;21.00;99.90;;;;;;5015252;28;20261;-86
2021/05/10 07:56:08;;;;;;;6.25;1.85;;;21.20;99.90;;;;;;5015457;28;20196;-87
2021/05/10 07:58:36;;;;;;;;;;;21.70;99.90;;;;;;5015415;28;20494;-88
2021/05/10 08:01:04;;;;;;;;;;;22.00;99.90;;;;;;5016418;28;19921;-87
2021/05/10 08:03:30;;;;;;;;;;;21.70;99.90;;;;;;5015904;28;19921;-86
2021/05/10 08:05:57;;;;;;;;;;;21.60;99.90;;;;;;5015237;28;19978;-87
2021/05/10 08:08:24;;;;;;;;;;;21.60;99.90;;;;;;5016558;28;20366;-89
2021/05/10 08:10:50;;;;;;;;;;;21.50;99.90;;;;;;5016391;28;19921;-90
2021/05/10 08:13:18;;;;;;;;;;;21.60;99.90;;;;;;5020073;28;19925;-87
2021/05/10 08:15:44;;;;;;;;;;;21.60;99.90;;;;;;5018061;28;20288;-87
2021/05/10 08:18:11;;;;;;;;;;;21.60;99.90;;;;;;5017316;28;19922;-87
2021/05/10 08:20:38;;;;;;;;;;;21.50;99.90;;;;;;5015889;28;20348;-85
2021/05/10 08:23:04;;;;;;;;;;;21.20;99.90;;;;;;5015324;28;20016;-87
2021/05/10 08:25:30;;;;;;;;;;;21.20;99.90;;;;;;5017795;28;19921;-87
2021/05/10 08:27:56;;;;;;;;;;;21.30;99.90;;;;;;5015601;28;19971;-89
2021/05/10 08:30:23;;;;;;;;;;;21.20;99.90;;;;;;5015796;28;19975;-88
2021/05/10 08:32:51;;;;;;;;;;;21.00;99.90;;;;;;5014633;28;20005;-84
2021/05/10 08:35:17;;;;;;;;;;;21.00;99.90;;;;;;5015536;28;19945;-88
2021/05/10 08:37:43;;;;;;;;;;;21.00;99.90;;;;;;5014982;28;19944;-87
2021/05/10 08:40:10;;;;;;;;;;;21.00;99.90;;;;;;5014861;28;19936;-89
2021/05/10 08:42:36;;;;;;;;;;;21.20;99.90;;;;;;5015388;28;20345;-89
2021/05/10 08:45:03;;;;;;;;;;;21.30;99.90;;;;;;5015353;28;20218;-88
2021/05/10 08:47:32;;;;;;;;;;;21.30;99.90;;;;;;5015045;28;19922;-88
2021/05/10 08:49:59;;;;;;;;;;;21.00;99.90;;;;;;5014937;28;19921;-91
2021/05/10 08:52:25;;;;;;;;;;;20.90;99.90;;;;;;5015435;28;20005;-91
2021/05/10 08:54:51;;;;;;;;;;;20.60;99.90;;;;;;5015315;28;19921;-89
2021/05/10 08:57:18;;;;;;;;;;;20.60;99.90;;;;;;5015953;28;19921;-86
2021/05/10 08:59:44;;;;;;;;;;;20.50;99.90;;;;;;5016166;28;20431;-87
2021/05/10 09:02:11;;;;;;;3.40;1.40;;;20.40;99.90;;;;;;5015921;28;20456;-90
2021/05/10 09:04:40;;;;;;;3.38;1.67;;;20.30;99.90;;;;;;5018619;28;20634;-83
2021/05/10 09:07:17;;;;;;;2.17;1.17;;;20.30;99.90;;;;;;5018499;28;20236;-87
2021/05/10 09:09:54;;;;;;;2.70;1.33;;;20.10;99.90;;;;;;5016201;28;20231;-85
2021/05/10 09:12:22;;;;;;;4.88;1.65;;;19.80;99.90;;;;;;5024341;28;20257;-88
2021/05/10 09:14:49;;;;;;;2.53;1.30;;;19.60;99.90;;;;;;5019334;28;20272;-87
2021/05/10 09:17:16;;;;;;;3.85;1.65;;;19.40;99.90;;;;;;5016935;28;20284;-91
2021/05/10 09:19:48;;;;;;;2.53;1.40;;;19.30;99.90;;;;;;5015655;28;20197;-89
2021/05/10 09:22:15;;;;;;;3.78;1.50;;;19.30;99.90;;;;;;5016021;28;20475;-87
2021/05/10 09:24:46;;;;;;;4.43;1.17;;;19.30;99.90;;;;;;5025467;28;20208;-88
2021/05/10 09:27:22;;;;;;;2.70;1.15;;;19.20;99.90;;;;;;5027763;28;20221;-89
2021/05/10 09:30:11;;;;;;;4.00;1.27;;;19.20;99.90;;;;;;5021824;28;20213;-84
2021/05/10 09:32:38;;;;;;;3.30;1.17;;;19.30;99.90;;;;;;5024453;28;20558;-92
2021/05/10 09:35:19;;;;;;;1.67;0.70;;;19.40;99.90;;;;;;5020784;28;20204;-88
2021/05/10 09:38:00;;;;;;;3.67;1.40;;;19.50;99.90;;;;;;5034895;28;20199;-87
2021/05/10 09:40:29;;;;;;;2.70;1.20;;;19.60;99.90;;;;;;5039265;28;20200;-88
2021/05/10 09:42:58;;;;;;;2.20;1.27;;;19.80;99.90;;;;;;5039047;28;20193;-87
2021/05/10 09:45:46;;;;;;;3.78;1.10;;;20.00;99.90;;;;;;5038190;28;20200;-88
2021/05/10 09:48:28;;;;;;;2.60;1.35;;;20.10;99.90;;;;;;5040632;28;20204;-87
2021/05/10 09:50:57;;;;;;;2.30;1.15;;;20.40;99.90;;;;;;5038764;28;20193;-84
2021/05/10 09:53:33;;;;;;;4.32;1.70;;;20.60;99.90;;;;;;5040676;28;20173;-88
2021/05/10 09:56:00;;;;;;;5.53;1.00;;;20.60;99.90;;;;;;5038151;28;20177;-89
2021/05/10 09:58:40;;;;;;;2.33;1.13;;;20.80;99.90;;;;;;5041800;28;20208;-89
2021/05/10 10:01:08;;;;;;;2.97;1.70;;;21.10;99.90;;;;;;5036057;28;20178;-90
2021/05/10 10:03:38;;;;;;;4.70;1.70;;;21.40;99.90;;;;;;5029459;28;20166;-90
2021/05/10 10:06:10;;;;;;;3.25;1.40;;;21.60;99.90;;;;;;5039348;28;20232;-89
2021/05/10 10:08:38;;;;;;;3.45;1.13;;;21.40;99.90;;;;;;5033444;28;20200;-89
2021/05/10 10:11:07;;;;;;;1.80;0.80;;;21.40;99.90;;;;;;5041445;28;20199;-91
2021/05/10 10:13:33;;;;;;;2.50;1.00;;;21.30;99.90;;;;;;5041326;28;20162;-90
2021/05/10 10:16:01;;;;;;;4.30;1.13;;;21.10;99.90;;;;;;5041223;28;20204;-88
2021/05/10 10:18:28;;;;;;;2.50;0.93;;;20.90;99.90;;;;;;5041253;28;20177;-88
2021/05/10 10:20:57;;;;;;;2.22;0.90;;;20.80;99.90;;;;;;5041068;28;20165;-86
2021/05/10 10:23:28;;;;;;;2.80;1.20;;;20.70;99.90;;;;;;5040881;28;20208;-90
2021/05/10 10:25:56;;;;;;;2.10;1.20;;;20.60;99.90;;;;;;5032185;28;20213;-86
2021/05/10 10:28:25;;;;;;;2.40;1.10;;;20.50;99.90;;;;;;5026069;28;20174;-88
2021/05/10 10:30:56;;;;;;;3.17;0.95;;;20.40;99.90;;;;;;5032615;28;20209;-87
2021/05/10 10:33:34;;;;;;;3.20;1.13;;;20.30;99.90;;;;;;5040499;28;20273;-89
2021/05/10 10:36:02;;;;;;;2.13;1.15;;;20.30;99.90;;;;;;5039220;28;20233;-90
2021/05/10 10:38:32;;;;;;;6.57;1.05;;;20.40;99.90;;;;;;5038148;28;20277;-87
2021/05/10 10:41:18;;;;;;;2.00;0.85;;;20.00;99.90;;;;;;5023505;28;20205;-89
2021/05/10 10:43:45;;;;;;;3.13;0.90;;;19.80;99.90;;;;;;5024338;28;20194;-86
2021/05/10 10:46:25;;;;;;;1.90;0.90;;;19.70;99.90;;;;;;5024078;28;20232;-87
2021/05/10 10:48:53;;;;;;;2.40;1.13;;;19.60;99.90;;;;;;5035695;28;20165;-92
2021/05/10 10:51:21;;;;;;;2.00;0.90;;;19.70;99.90;;;;;;5040993;28;20177;-91
2021/05/10 10:53:55;;;;;;;2.17;0.90;;;20.00;99.90;;;;;;5041370;28;20200;-90
2021/05/10 10:56:52;;;;;;;2.67;0.95;;;20.30;99.90;;;;;;5040790;28;20227;-90
2021/05/10 10:59:35;;;;;;;2.63;1.10;;;20.60;99.90;;;;;;5034789;28;20225;-91
2021/05/10 11:02:15;;;;;;;1.90;0.90;;;20.70;99.90;;;;;;5035386;28;20253;-88
2021/05/10 11:04:47;;;;;;;2.20;1.20;;;20.70;99.90;;;;;;5035152;28;20176;-92
2021/05/10 11:07:13;;;;;;;3.40;1.27;;;20.40;99.90;;;;;;5039258;28;20205;-93
2021/05/10 11:10:27;;;;;;;1.90;0.80;;;20.50;99.90;;;;;;5039229;28;20204;-87
2021/05/10 11:12:55;;;;;;;4.13;1.35;;;20.60;99.90;;;;;;5038999;28;20193;-90
2021/05/10 11:18:33;;;;;;;2.65;1.45;;;21.10;99.90;;;;;;5037931;28;20169;-88
2021/05/10 11:21:01;;;;;;;3.05;1.25;;;21.20;99.90;;;;;;5039258;28;20177;-87
2021/05/10 11:23:36;;;;;;;3.83;0.90;;;21.00;99.90;;;;;;5031356;28;20197;-93
2021/05/10 11:26:10;;;;;;;2.08;1.13;;;20.90;99.90;;;;;;5024088;28;20197;-94
2021/05/10 11:28:53;;;;;;;3.47;1.55;;;20.80;99.90;;;;;;5032326;28;20194;-94
2021/05/10 11:31:33;;;;;;;2.25;1.20;;;20.80;99.90;;;;;;5026413;28;20311;-92
2021/05/10 11:34:11;;;;;;;2.40;1.50;;;20.40;99.90;;;;;;5020445;28;20225;-90
2021/05/10 11:42:13;;;;;;;2.35;1.10;;;21.50;99.90;;;;;;5008244;28;20276;-93
2021/05/10 11:44:43;;;;;;;2.20;1.20;;;21.90;99.90;;;;;;5014134;28;20192;-93
2021/05/10 11:47:16;;;;;;;5.45;1.50;;;21.80;99.90;;;;;;5004786;28;20206;-92
2021/05/10 11:49:50;;;;;;;3.20;1.30;;;21.90;99.90;;;;;;5003689;28;20189;-95
2021/05/10 11:52:22;;;;;;;2.30;1.30;;;21.90;99.90;;;;;;5010008;28;20229;-95
2021/05/10 11:54:50;;;;;;;3.83;1.98;;;21.80;99.90;;;;;;5009632;28;20201;-93
2021/05/10 11:57:22;;;;;;;3.58;1.10;;;21.80;99.90;;;;;;5004453;28;20217;-93
2021/05/10 11:59:52;;;;;;;2.15;1.10;;;22.00;99.90;;;;;;5004843;28;20725;-92
2021/05/10 12:02:22;;;;;;;4.32;1.25;;;21.80;99.90;;;;;;5002817;28;20553;-94
2021/05/10 12:04:50;;;;;;;2.08;1.23;;;21.80;99.90;;;;;;5001896;28;20198;-88
2021/05/10 12:07:18;;;;;;;2.20;1.08;;;21.60;99.90;;;;;;5018423;28;20259;-91
2021/05/10 12:09:47;;;;;;;2.80;1.35;;;21.00;99.90;;;;;;5019089;28;20634;-92
2021/05/10 12:12:31;;;;;;;3.20;1.25;;;20.80;99.90;;;;;;5019403;28;20534;-92
2021/05/10 12:15:17;;;;;;;2.33;1.35;;;20.70;99.90;;;;;;5022642;28;20169;-94
2021/05/10 12:17:53;;;;;;;2.75;1.35;;;20.60;99.90;;;;;;5002578;28;20261;-95
2021/05/10 12:20:22;;;;;;;2.92;1.33;;;20.60;99.90;;;;;;5010462;28;20193;-90
2021/05/10 12:22:50;;;;;;;2.50;1.40;;;20.60;99.90;;;;;;5023944;28;20637;-93
2021/05/10 12:25:20;;;;;;;2.75;1.50;;;20.60;99.90;;;;;;5021756;28;20189;-92
2021/05/10 12:27:50;;;;;;;3.50;1.25;;;20.70;99.90;;;;;;5020640;28;20248;-91
2021/05/10 12:30:24;;;;;;;3.78;1.60;;;20.80;99.90;;;;;;5014362;28;20586;-89
2021/05/10 12:32:54;;;;;;;3.22;1.25;;;20.90;99.90;;;;;;4997759;28;20251;-91
2021/05/10 12:35:23;;;;;;;4.35;1.48;;;20.80;99.90;;;;;;5019271;28;20198;-91
2021/05/10 12:37:51;;;;;;;3.72;1.45;;;21.00;99.90;;;;;;5020885;28;20189;-90
2021/05/10 12:40:20;;;;;;;4.57;1.88;;;21.00;99.90;;;;;;5021156;28;20197;-91
2021/05/10 12:43:03;;;;;;;3.70;1.48;;;20.80;99.90;;;;;;5019280;28;20268;-89
2021/05/10 12:45:59;;;;;;;2.45;1.77;;;20.70;99.90;;;;;;5021140;28;20220;-94
2021/05/10 12:48:26;;;;;;;2.65;1.60;;;20.60;99.90;;;;;;5020743;28;20216;-89
2021/05/10 12:50:55;;;;;;;7.28;2.17;;;20.40;99.90;;;;;;5021754;28;20203;-92
2021/05/10 12:53:37;;;;;;;3.78;1.90;;;20.20;99.90;;;;;;5019671;28;20245;-88
2021/05/10 12:56:07;;;;;;;3.40;2.30;;;19.70;99.90;;;;;;5021106;28;20189;-89
2021/05/10 12:58:35;;;;;;;3.10;2.05;;;19.20;99.90;;;;;;5020949;28;20181;-91
2021/05/10 13:01:20;;;;;;;7.93;2.33;;;18.80;99.90;;;;;;5007336;28;20247;-90
2021/05/10 13:03:58;;;;;;;3.15;2.20;;;18.10;99.90;;;;;;5018227;28;20211;-90
2021/05/10 13:06:26;;;;;;;4.22;2.03;;;17.80;99.90;;;;;;5012500;28;20203;-89
2021/05/10 13:08:53;;;;;;;6.28;2.25;;;17.60;99.90;;;;;;5013796;28;20284;-87
2021/05/10 13:11:22;;;;;;;4.85;2.40;;;17.50;99.90;;;;;;5012152;28;20194;-89
2021/05/10 13:13:54;;;;;;;5.63;2.97;;;17.50;99.90;;;;;;5013897;28;20185;-90
2021/05/10 13:19:43;;;;;;;4.72;3.03;;;17.50;99.90;;;;;;4935726;29;20600;-87
2021/05/10 13:33:32;;;;;;;3.83;1.73;;;18.60;99.90;;;;;;5011668;28;20219;-89
2021/05/10 13:36:01;;;;;;;2.97;1.45;;;19.20;99.90;;;;;;5015670;28;20190;-87
2021/05/10 13:38:30;;;;;;;3.30;1.65;;;19.50;99.90;;;;;;5016627;28;20580;-88
2021/05/10 13:41:01;;;;;;;3.13;1.30;;;19.60;99.90;;;;;;5017420;28;20251;-90
2021/05/10 13:43:32;;;;;;;4.65;1.90;;;19.90;99.90;;;;;;5019560;28;20194;-88
2021/05/10 13:45:59;;;;;;;5.32;1.90;;;19.80;99.90;;;;;;5016750;28;20185;-88
2021/05/10 13:48:27;;;;;;;2.88;1.33;;;19.80;99.90;;;;;;5017073;28;20217;-91
2021/05/10 13:50:53;;;;;;;3.53;1.50;;;19.70;99.90;;;;;;5009101;28;20218;-89
2021/05/10 13:53:19;;;;;;;2.58;1.70;;;19.80;99.90;;;;;;4998704;28;20225;-88
2021/05/10 13:55:46;;;;;;;3.97;1.50;;;19.90;99.90;;;;;;5017224;28;20190;-90
2021/05/10 13:58:12;;;;;;;3.00;1.73;;;19.90;99.90;;;;;;5016997;28;20193;-90
2021/05/10 14:00:39;;;;;;;2.85;1.50;;;20.00;99.90;;;;;;5017354;28;20266;-90
2021/05/10 14:03:05;;;;;;;3.15;1.20;;;19.80;99.90;;;;;;5015770;28;20253;-89
2021/05/10 14:05:35;;;;;;;6.15;1.45;;;19.60;99.90;;;;;;5016460;28;20185;-89
2021/05/10 14:08:01;;;;;;;3.67;1.23;;;19.90;99.90;;;;;;5022090;28;20217;-89
2021/05/10 14:10:28;;;;;;;3.47;1.35;;;20.00;99.90;;;;;;5017729;28;20181;-89
2021/05/10 14:12:54;;;;;;;2.95;1.30;;;20.30;99.90;;;;;;5018803;28;20530;-88
2021/05/10 14:15:20;;;;;;;2.65;1.33;;;20.30;99.90;;;;;;5018168;28;20204;-90